sensor_id;sensor_type;location;lat;lon;timestamp;temperature;humidity
27667;DHT22;15074;50.940;5.282;2022-10-31T00:00:45;13.80;99.90
27667;DHT22;15074;50.940;5.282;2022-10-31T00:03:10;13.70;99.90
27667;DHT22;15074;50.940;5.282;2022-10-31T00:05:39;13.70;99.90
27667;DHT22;15074;50.940;5.282;2022-10-31T00:08:05;13.60;99.90
27667;DHT22;15074;50.940;5.282;2022-10-31T00:10:31;13.60;99.90
27667;DHT22;15074;50.940;5.282;2022-10-31T00:12:57;13.70;99.90
27667;DHT22;15074;50.940;5.282;2022-10-31T00:15:22;13.80;99.90
27667;DHT22;15074;50.940;5.282;2022-10-31T00:17:48;13.90;99.90
27667;DHT22;15074;50.940;5.282;2022-10-31T00:20:13;13.80;99.90
27667;DHT22;15074;50.940;5.282;2022-10-31T00:22:39;13.70;99.90
27667;DHT22;15074;50.940;5.282;2022-10-31T00:25:05;13.60;99.90
27667;DHT22;15074;50.940;5.282;2022-10-31T00:27:30;13.50;99.90
27667;DHT22;15074;50.940;5.282;2022-10-31T00:29:56;13.50;99.90
27667;DHT22;15074;50.940;5.282;2022-10-31T00:32:21;13.40;99.90
27667;DHT22;15074;50.940;5.282;2022-10-31T00:34:47;13.40;99.90
27667;DHT22;15074;50.940;5.282;2022-10-31T00:37:12;13.40;99.90
27667;DHT22;15074;50.940;5.282;2022-10-31T00:39:38;13.40;99.90
27667;DHT22;15074;50.940;5.282;2022-10-31T00:42:04;13.30;99.90
27667;DHT22;15074;50.940;5.282;2022-10-31T00:44:29;13.30;99.90
27667;DHT22;15074;50.940;5.282;2022-10-31T00:46:55;13.30;99.90
27667;DHT22;15074;50.940;5.282;2022-10-31T00:49:20;13.40;99.90
27667;DHT22;15074;50.940;5.282;2022-10-31T00:51:46;13.40;99.90
27667;DHT22;15074;50.940;5.282;2022-10-31T00:54:11;13.40;99.90
27667;DHT22;15074;50.940;5.282;2022-10-31T00:56:37;13.40;99.90
27667;DHT22;15074;50.940;5.282;2022-10-31T00:59:02;13.40;99.90
27667;DHT22;15074;50.940;5.282;2022-10-31T01:01:28;13.40;99.90
27667;DHT22;15074;50.940;5.282;2022-10-31T01:03:54;13.40;99.90
27667;DHT22;15074;50.940;5.282;2022-10-31T01:06:19;13.40;99.90
27667;DHT22;15074;50.940;5.282;2022-10-31T01:08:47;13.30;99.90
27667;DHT22;15074;50.940;5.282;2022-10-31T01:11:21;13.30;99.90
27667;DHT22;15074;50.940;5.282;2022-10-31T01:13:49;13.30;99.90
27667;DHT22;15074;50.940;5.282;2022-10-31T01:16:17;13.30;99.90
27667;DHT22;15074;50.940;5.282;2022-10-31T01:18:44;13.30;99.90
27667;DHT22;15074;50.940;5.282;2022-10-31T01:21:15;13.20;99.90
27667;DHT22;15074;50.940;5.282;2022-10-31T01:23:42;13.20;99.90
27667;DHT22;15074;50.940;5.282;2022-10-31T01:26:14;13.10;99.90
27667;DHT22;15074;50.940;5.282;2022-10-31T01:28:46;13.10;99.90
27667;DHT22;15074;50.940;5.282;2022-10-31T01:31:12;13.10;99.90
27667;DHT22;15074;50.940;5.282;2022-10-31T01:33:38;13.00;99.90
27667;DHT22;15074;50.940;5.282;2022-10-31T01:36:22;13.10;99.90
27667;DHT22;15074;50.940;5.282;2022-10-31T01:38:49;13.00;99.90
27667;DHT22;15074;50.940;5.282;2022-10-31T01:41:18;13.00;99.90
27667;DHT22;15074;50.940;5.282;2022-10-31T01:46:12;12.90;99.90
27667;DHT22;15074;50.940;5.282;2022-10-31T01:48:40;12.80;99.90
27667;DHT22;15074;50.940;5.282;2022-10-31T01:51:06;12.80;99.90
27667;DHT22;15074;50.940;5.282;2022-10-31T01:53:32;12.80;99.90
27667;DHT22;15074;50.940;5.282;2022-10-31T01:55:59;12.80;99.90
27667;DHT22;15074;50.940;5.282;2022-10-31T01:58:28;12.70;99.90
27667;DHT22;15074;50.940;5.282;2022-10-31T02:00:59;12.50;99.90
27667;DHT22;15074;50.940;5.282;2022-10-31T02:03:26;12.40;99.90
27667;DHT22;15074;50.940;5.282;2022-10-31T02:05:54;12.40;99.90
27667;DHT22;15074;50.940;5.282;2022-10-31T02:08:24;12.40;99.90
27667;DHT22;15074;50.940;5.282;2022-10-31T02:10:50;12.40;99.90
27667;DHT22;15074;50.940;5.282;2022-10-31T02:13:17;12.40;99.90
27667;DHT22;15074;50.940;5.282;2022-10-31T02:15:45;12.40;99.90
27667;DHT22;15074;50.940;5.282;2022-10-31T02:18:12;12.40;99.90
27667;DHT22;15074;50.940;5.282;2022-10-31T02:20:58;12.40;99.90
27667;DHT22;15074;50.940;5.282;2022-10-31T02:23:51;12.40;99.90
27667;DHT22;15074;50.940;5.282;2022-10-31T02:34:50;12.60;99.90
27667;DHT22;15074;50.940;5.282;2022-10-31T02:37:37;12.50;99.90
27667;DHT22;15074;50.940;5.282;2022-10-31T02:40:05;12.30;99.90
27667;DHT22;15074;50.940;5.282;2022-10-31T02:42:47;12.30;99.90
27667;DHT22;15074;50.940;5.282;2022-10-31T02:45:28;12.20;99.90
27667;DHT22;15074;50.940;5.282;2022-10-31T02:47:58;12.30;99.90
27667;DHT22;15074;50.940;5.282;2022-10-31T02:50:34;12.30;99.90
27667;DHT22;15074;50.940;5.282;2022-10-31T02:53:01;12.30;99.90
27667;DHT22;15074;50.940;5.282;2022-10-31T02:58:04;12.20;99.90
27667;DHT22;15074;50.940;5.282;2022-10-31T03:03:16;12.20;99.90
27667;DHT22;15074;50.940;5.282;2022-10-31T03:11:44;12.10;99.90
27667;DHT22;15074;50.940;5.282;2022-10-31T03:14:26;12.20;99.90
27667;DHT22;15074;50.940;5.282;2022-10-31T03:16:54;12.20;99.90
27667;DHT22;15074;50.940;5.282;2022-10-31T03:19:26;12.20;99.90
27667;DHT22;15074;50.940;5.282;2022-10-31T03:22:10;12.20;99.90
27667;DHT22;15074;50.940;5.282;2022-10-31T03:24:40;12.10;99.90
27667;DHT22;15074;50.940;5.282;2022-10-31T03:27:09;12.10;99.90
27667;DHT22;15074;50.940;5.282;2022-10-31T03:29:37;12.10;99.90
27667;DHT22;15074;50.940;5.282;2022-10-31T03:32:19;12.10;99.90
27667;DHT22;15074;50.940;5.282;2022-10-31T03:34:46;12.10;99.90
27667;DHT22;15074;50.940;5.282;2022-10-31T03:37:15;12.00;99.90
27667;DHT22;15074;50.940;5.282;2022-10-31T03:39:43;12.20;99.90
27667;DHT22;15074;50.940;5.282;2022-10-31T03:42:13;12.20;99.90
27667;DHT22;15074;50.940;5.282;2022-10-31T03:44:44;12.30;99.90
27667;DHT22;15074;50.940;5.282;2022-10-31T03:47:11;12.00;99.90
27667;DHT22;15074;50.940;5.282;2022-10-31T03:49:37;12.00;99.90
27667;DHT22;15074;50.940;5.282;2022-10-31T03:52:24;12.10;99.90
27667;DHT22;15074;50.940;5.282;2022-10-31T03:55:01;12.00;99.90
27667;DHT22;15074;50.940;5.282;2022-10-31T03:57:45;12.00;99.90
27667;DHT22;15074;50.940;5.282;2022-10-31T04:00:13;12.00;99.90
27667;DHT22;15074;50.940;5.282;2022-10-31T04:02:47;11.90;99.90
27667;DHT22;15074;50.940;5.282;2022-10-31T04:05:15;11.80;99.90
27667;DHT22;15074;50.940;5.282;2022-10-31T04:07:44;11.70;99.90
27667;DHT22;15074;50.940;5.282;2022-10-31T04:10:14;11.80;99.90
27667;DHT22;15074;50.940;5.282;2022-10-31T04:12:43;11.80;99.90
27667;DHT22;15074;50.940;5.282;2022-10-31T04:15:11;11.90;99.90
27667;DHT22;15074;50.940;5.282;2022-10-31T04:17:40;11.90;99.90
27667;DHT22;15074;50.940;5.282;2022-10-31T04:20:07;11.90;99.90
27667;DHT22;15074;50.940;5.282;2022-10-31T04:22:33;11.80;99.90
27667;DHT22;15074;50.940;5.282;2022-10-31T04:24:58;11.60;99.90
27667;DHT22;15074;50.940;5.282;2022-10-31T04:27:25;11.60;99.90
27667;DHT22;15074;50.940;5.282;2022-10-31T04:29:50;11.60;99.90
27667;DHT22;15074;50.940;5.282;2022-10-31T04:32:16;11.60;99.90
27667;DHT22;15074;50.940;5.282;2022-10-31T04:34:41;11.60;99.90
27667;DHT22;15074;50.940;5.282;2022-10-31T04:37:07;11.70;99.90
27667;DHT22;15074;50.940;5.282;2022-10-31T04:39:33;11.60;99.90
27667;DHT22;15074;50.940;5.282;2022-10-31T04:41:58;11.60;99.90
27667;DHT22;15074;50.940;5.282;2022-10-31T04:44:24;11.60;99.90
27667;DHT22;15074;50.940;5.282;2022-10-31T04:46:49;11.70;99.90
27667;DHT22;15074;50.940;5.282;2022-10-31T04:49:15;11.70;99.90
27667;DHT22;15074;50.940;5.282;2022-10-31T04:51:41;11.70;99.90
27667;DHT22;15074;50.940;5.282;2022-10-31T04:54:06;11.70;99.90
27667;DHT22;15074;50.940;5.282;2022-10-31T04:56:32;11.80;99.90
27667;DHT22;15074;50.940;5.282;2022-10-31T04:58:57;11.80;99.90
27667;DHT22;15074;50.940;5.282;2022-10-31T05:01:23;11.80;99.90
27667;DHT22;15074;50.940;5.282;2022-10-31T05:03:48;11.80;99.90
27667;DHT22;15074;50.940;5.282;2022-10-31T05:06:14;11.80;99.90
27667;DHT22;15074;50.940;5.282;2022-10-31T05:08:41;11.80;99.90
27667;DHT22;15074;50.940;5.282;2022-10-31T05:11:07;11.80;99.90
27667;DHT22;15074;50.940;5.282;2022-10-31T05:13:33;11.80;99.90
27667;DHT22;15074;50.940;5.282;2022-10-31T05:15:58;11.90;99.90
27667;DHT22;15074;50.940;5.282;2022-10-31T05:18:24;11.80;99.90
27667;DHT22;15074;50.940;5.282;2022-10-31T05:20:49;11.70;99.90
27667;DHT22;15074;50.940;5.282;2022-10-31T05:23:15;11.70;99.90
27667;DHT22;15074;50.940;5.282;2022-10-31T05:25:40;11.70;99.90
27667;DHT22;15074;50.940;5.282;2022-10-31T05:28:07;11.60;99.90
27667;DHT22;15074;50.940;5.282;2022-10-31T05:30:35;11.60;99.90
27667;DHT22;15074;50.940;5.282;2022-10-31T05:33:01;11.70;99.90
27667;DHT22;15074;50.940;5.282;2022-10-31T05:35:31;11.80;99.90
27667;DHT22;15074;50.940;5.282;2022-10-31T05:37:58;11.90;99.90
27667;DHT22;15074;50.940;5.282;2022-10-31T05:40:25;11.90;99.90
27667;DHT22;15074;50.940;5.282;2022-10-31T05:42:53;11.90;99.90
27667;DHT22;15074;50.940;5.282;2022-10-31T05:45:19;12.10;99.90
27667;DHT22;15074;50.940;5.282;2022-10-31T05:47:56;12.10;99.90
27667;DHT22;15074;50.940;5.282;2022-10-31T05:50:23;12.20;99.90
27667;DHT22;15074;50.940;5.282;2022-10-31T05:53:03;12.00;99.90
27667;DHT22;15074;50.940;5.282;2022-10-31T05:55:31;12.00;99.90
27667;DHT22;15074;50.940;5.282;2022-10-31T05:57:57;12.00;99.90
27667;DHT22;15074;50.940;5.282;2022-10-31T06:00:26;11.90;99.90
27667;DHT22;15074;50.940;5.282;2022-10-31T06:03:03;11.80;99.90
27667;DHT22;15074;50.940;5.282;2022-10-31T06:05:30;11.70;99.90
27667;DHT22;15074;50.940;5.282;2022-10-31T06:07:57;11.70;99.90
27667;DHT22;15074;50.940;5.282;2022-10-31T06:10:23;11.60;99.90
27667;DHT22;15074;50.940;5.282;2022-10-31T06:12:49;11.70;99.90
27667;DHT22;15074;50.940;5.282;2022-10-31T06:15:15;11.80;99.90
27667;DHT22;15074;50.940;5.282;2022-10-31T06:17:41;11.80;99.90
27667;DHT22;15074;50.940;5.282;2022-10-31T06:20:07;11.80;99.90
27667;DHT22;15074;50.940;5.282;2022-10-31T06:22:33;11.70;99.90
27667;DHT22;15074;50.940;5.282;2022-10-31T06:24:59;11.60;99.90
27667;DHT22;15074;50.940;5.282;2022-10-31T06:27:25;11.60;99.90
27667;DHT22;15074;50.940;5.282;2022-10-31T06:29:52;11.70;99.90
27667;DHT22;15074;50.940;5.282;2022-10-31T06:32:18;11.80;99.90
27667;DHT22;15074;50.940;5.282;2022-10-31T06:34:44;11.90;99.90
27667;DHT22;15074;50.940;5.282;2022-10-31T06:37:14;11.90;99.90
27667;DHT22;15074;50.940;5.282;2022-10-31T06:39:40;11.80;99.90
27667;DHT22;15074;50.940;5.282;2022-10-31T06:42:06;11.80;99.90
27667;DHT22;15074;50.940;5.282;2022-10-31T06:44:32;11.80;99.90
27667;DHT22;15074;50.940;5.282;2022-10-31T06:46:58;11.70;99.90
27667;DHT22;15074;50.940;5.282;2022-10-31T06:49:25;11.70;99.90
27667;DHT22;15074;50.940;5.282;2022-10-31T06:51:51;11.90;99.90
27667;DHT22;15074;50.940;5.282;2022-10-31T06:54:17;11.80;99.90
27667;DHT22;15074;50.940;5.282;2022-10-31T06:56:44;11.60;99.90
27667;DHT22;15074;50.940;5.282;2022-10-31T06:59:10;11.60;99.90
27667;DHT22;15074;50.940;5.282;2022-10-31T07:01:36;11.60;99.90
27667;DHT22;15074;50.940;5.282;2022-10-31T07:04:01;11.50;99.90
27667;DHT22;15074;50.940;5.282;2022-10-31T07:06:27;11.50;99.90
27667;DHT22;15074;50.940;5.282;2022-10-31T07:08:53;11.50;99.90
27667;DHT22;15074;50.940;5.282;2022-10-31T07:11:18;11.50;99.90
27667;DHT22;15074;50.940;5.282;2022-10-31T07:13:44;11.40;99.90
27667;DHT22;15074;50.940;5.282;2022-10-31T07:16:09;11.50;99.90
27667;DHT22;15074;50.940;5.282;2022-10-31T07:18:39;11.50;99.90
27667;DHT22;15074;50.940;5.282;2022-10-31T07:21:05;11.50;99.90
27667;DHT22;15074;50.940;5.282;2022-10-31T07:23:31;11.60;99.90
27667;DHT22;15074;50.940;5.282;2022-10-31T07:25:58;11.70;99.90
27667;DHT22;15074;50.940;5.282;2022-10-31T07:28:24;11.90;99.90
27667;DHT22;15074;50.940;5.282;2022-10-31T07:30:51;12.10;99.90
27667;DHT22;15074;50.940;5.282;2022-10-31T07:33:17;12.10;99.90
27667;DHT22;15074;50.940;5.282;2022-10-31T07:35:43;12.10;99.90
27667;DHT22;15074;50.940;5.282;2022-10-31T07:38:10;12.20;99.90
27667;DHT22;15074;50.940;5.282;2022-10-31T07:40:37;12.00;99.90
27667;DHT22;15074;50.940;5.282;2022-10-31T07:43:03;11.90;99.90
27667;DHT22;15074;50.940;5.282;2022-10-31T07:45:29;12.10;99.90
27667;DHT22;15074;50.940;5.282;2022-10-31T07:47:55;12.20;99.90
27667;DHT22;15074;50.940;5.282;2022-10-31T07:50:22;12.30;99.90
27667;DHT22;15074;50.940;5.282;2022-10-31T07:52:57;12.20;99.90
27667;DHT22;15074;50.940;5.282;2022-10-31T07:55:23;12.20;99.90
27667;DHT22;15074;50.940;5.282;2022-10-31T07:57:59;12.40;99.90
27667;DHT22;15074;50.940;5.282;2022-10-31T08:00:26;12.90;99.90
27667;DHT22;15074;50.940;5.282;2022-10-31T08:03:01;13.10;99.90
27667;DHT22;15074;50.940;5.282;2022-10-31T08:05:28;13.00;99.90
27667;DHT22;15074;50.940;5.282;2022-10-31T08:07:55;13.10;99.90
27667;DHT22;15074;50.940;5.282;2022-10-31T08:10:20;13.20;99.90
27667;DHT22;15074;50.940;5.282;2022-10-31T08:12:46;13.60;99.90
27667;DHT22;15074;50.940;5.282;2022-10-31T08:15:12;14.10;99.90
27667;DHT22;15074;50.940;5.282;2022-10-31T08:17:38;14.80;99.90
27667;DHT22;15074;50.940;5.282;2022-10-31T08:20:05;15.40;99.90
27667;DHT22;15074;50.940;5.282;2022-10-31T08:22:31;15.80;99.90
27667;DHT22;15074;50.940;5.282;2022-10-31T08:24:57;15.80;99.90
27667;DHT22;15074;50.940;5.282;2022-10-31T08:27:23;15.20;99.90
27667;DHT22;15074;50.940;5.282;2022-10-31T08:29:48;14.90;99.90
27667;DHT22;15074;50.940;5.282;2022-10-31T08:32:14;15.00;99.90
27667;DHT22;15074;50.940;5.282;2022-10-31T08:34:40;15.70;99.90
27667;DHT22;15074;50.940;5.282;2022-10-31T08:37:05;16.20;99.90
27667;DHT22;15074;50.940;5.282;2022-10-31T08:39:31;16.70;99.90
27667;DHT22;15074;50.940;5.282;2022-10-31T08:41:57;17.20;99.90
27667;DHT22;15074;50.940;5.282;2022-10-31T08:44:22;17.40;99.90
27667;DHT22;15074;50.940;5.282;2022-10-31T08:46:48;17.40;99.90
27667;DHT22;15074;50.940;5.282;2022-10-31T08:49:13;17.80;99.90
27667;DHT22;15074;50.940;5.282;2022-10-31T08:51:39;18.00;99.90
27667;DHT22;15074;50.940;5.282;2022-10-31T08:54:04;17.40;99.90
27667;DHT22;15074;50.940;5.282;2022-10-31T08:56:30;17.00;99.90
27667;DHT22;15074;50.940;5.282;2022-10-31T08:58:56;17.20;99.90
27667;DHT22;15074;50.940;5.282;2022-10-31T09:01:22;16.70;99.90
27667;DHT22;15074;50.940;5.282;2022-10-31T09:03:47;16.00;99.90
27667;DHT22;15074;50.940;5.282;2022-10-31T09:06:13;15.80;99.90
27667;DHT22;15074;50.940;5.282;2022-10-31T09:08:39;15.90;99.90
27667;DHT22;15074;50.940;5.282;2022-10-31T09:11:05;16.30;99.90
27667;DHT22;15074;50.940;5.282;2022-10-31T09:13:32;16.90;99.90
27667;DHT22;15074;50.940;5.282;2022-10-31T09:15:58;17.70;99.90
27667;DHT22;15074;50.940;5.282;2022-10-31T09:18:26;17.60;99.90
27667;DHT22;15074;50.940;5.282;2022-10-31T09:20:53;17.20;99.90
27667;DHT22;15074;50.940;5.282;2022-10-31T09:23:21;17.00;99.90
27667;DHT22;15074;50.940;5.282;2022-10-31T09:25:48;16.90;99.90
27667;DHT22;15074;50.940;5.282;2022-10-31T09:28:16;16.90;99.90
27667;DHT22;15074;50.940;5.282;2022-10-31T09:30:42;17.50;99.90
27667;DHT22;15074;50.940;5.282;2022-10-31T09:33:10;18.20;99.90
27667;DHT22;15074;50.940;5.282;2022-10-31T09:35:37;18.30;99.90
27667;DHT22;15074;50.940;5.282;2022-10-31T09:38:05;18.10;99.90
27667;DHT22;15074;50.940;5.282;2022-10-31T09:40:36;17.20;99.90
27667;DHT22;15074;50.940;5.282;2022-10-31T09:51:30;16.10;99.90
27667;DHT22;15074;50.940;5.282;2022-10-31T09:54:10;16.40;99.90
27667;DHT22;15074;50.940;5.282;2022-10-31T09:56:38;16.70;99.90
27667;DHT22;15074;50.940;5.282;2022-10-31T09:59:16;16.80;99.90
27667;DHT22;15074;50.940;5.282;2022-10-31T10:01:46;17.10;99.90
27667;DHT22;15074;50.940;5.282;2022-10-31T10:06:51;16.80;99.90
27667;DHT22;15074;50.940;5.282;2022-10-31T10:09:19;16.60;99.90
27667;DHT22;15074;50.940;5.282;2022-10-31T10:22:46;16.50;99.90
27667;DHT22;15074;50.940;5.282;2022-10-31T10:28:14;16.70;99.90
27667;DHT22;15074;50.940;5.282;2022-10-31T10:31:01;16.70;99.90
27667;DHT22;15074;50.940;5.282;2022-10-31T10:33:39;16.60;99.90
27667;DHT22;15074;50.940;5.282;2022-10-31T10:36:14;16.50;99.90
27667;DHT22;15074;50.940;5.282;2022-10-31T10:41:21;16.40;99.90
27667;DHT22;15074;50.940;5.282;2022-10-31T10:43:51;16.30;99.90
27667;DHT22;15074;50.940;5.282;2022-10-31T10:46:21;16.50;99.90
27667;DHT22;15074;50.940;5.282;2022-10-31T10:49:17;16.80;99.90
27667;DHT22;15074;50.940;5.282;2022-10-31T10:54:49;17.20;99.90
27667;DHT22;15074;50.940;5.282;2022-10-31T10:57:37;17.40;99.90
27667;DHT22;15074;50.940;5.282;2022-10-31T11:00:23;17.50;99.90
27667;DHT22;15074;50.940;5.282;2022-10-31T11:02:49;17.60;99.90
27667;DHT22;15074;50.940;5.282;2022-10-31T11:05:37;17.60;99.90
27667;DHT22;15074;50.940;5.282;2022-10-31T11:08:05;17.60;99.90
27667;DHT22;15074;50.940;5.282;2022-10-31T11:10:31;17.80;99.90
27667;DHT22;15074;50.940;5.282;2022-10-31T11:16:01;18.10;99.90
27667;DHT22;15074;50.940;5.282;2022-10-31T11:18:30;18.40;99.90
27667;DHT22;15074;50.940;5.282;2022-10-31T11:20:58;18.70;99.90
27667;DHT22;15074;50.940;5.282;2022-10-31T11:23:26;18.90;99.90
27667;DHT22;15074;50.940;5.282;2022-10-31T11:26:00;19.00;99.90
27667;DHT22;15074;50.940;5.282;2022-10-31T11:28:27;19.30;99.90
27667;DHT22;15074;50.940;5.282;2022-10-31T11:30:59;19.10;99.90
27667;DHT22;15074;50.940;5.282;2022-10-31T11:33:35;19.10;99.90
27667;DHT22;15074;50.940;5.282;2022-10-31T11:36:03;19.00;99.90
27667;DHT22;15074;50.940;5.282;2022-10-31T11:38:42;18.80;99.90
27667;DHT22;15074;50.940;5.282;2022-10-31T11:41:51;18.90;99.90
27667;DHT22;15074;50.940;5.282;2022-10-31T11:44:21;18.70;99.90
27667;DHT22;15074;50.940;5.282;2022-10-31T11:46:57;19.10;99.90
27667;DHT22;15074;50.940;5.282;2022-10-31T11:49:35;19.30;99.90
27667;DHT22;15074;50.940;5.282;2022-10-31T11:52:17;19.70;99.90
27667;DHT22;15074;50.940;5.282;2022-10-31T11:54:50;19.70;99.90
27667;DHT22;15074;50.940;5.282;2022-10-31T11:57:28;19.20;99.90
27667;DHT22;15074;50.940;5.282;2022-10-31T11:59:59;19.00;99.90
27667;DHT22;15074;50.940;5.282;2022-10-31T12:02:25;18.90;99.90
27667;DHT22;15074;50.940;5.282;2022-10-31T12:07:25;18.90;99.90
27667;DHT22;15074;50.940;5.282;2022-10-31T12:09:51;18.90;99.90
27667;DHT22;15074;50.940;5.282;2022-10-31T12:12:40;18.90;99.90
27667;DHT22;15074;50.940;5.282;2022-10-31T12:15:33;19.00;99.90
27667;DHT22;15074;50.940;5.282;2022-10-31T12:18:27;18.90;99.90
27667;DHT22;15074;50.940;5.282;2022-10-31T12:21:27;18.50;99.90
27667;DHT22;15074;50.940;5.282;2022-10-31T12:24:23;18.50;99.90
27667;DHT22;15074;50.940;5.282;2022-10-31T12:32:38;18.70;99.90
27667;DHT22;15074;50.940;5.282;2022-10-31T12:38:29;18.80;99.90
27667;DHT22;15074;50.940;5.282;2022-10-31T12:49:52;19.00;99.90
27667;DHT22;15074;50.940;5.282;2022-10-31T12:56:05;19.20;99.90
27667;DHT22;15074;50.940;5.282;2022-10-31T12:58:20;19.30;99.90
27667;DHT22;15074;50.940;5.282;2022-10-31T13:00:50;19.70;99.90
27667;DHT22;15074;50.940;5.282;2022-10-31T13:03:38;20.00;99.90
27667;DHT22;15074;50.940;5.282;2022-10-31T13:06:11;19.70;99.90
27667;DHT22;15074;50.940;5.282;2022-10-31T13:08:57;19.60;99.90
27667;DHT22;15074;50.940;5.282;2022-10-31T13:11:40;19.70;99.90
27667;DHT22;15074;50.940;5.282;2022-10-31T13:14:27;19.90;99.90
27667;DHT22;15074;50.940;5.282;2022-10-31T13:16:56;20.10;99.90
27667;DHT22;15074;50.940;5.282;2022-10-31T13:19:34;20.00;99.90
27667;DHT22;15074;50.940;5.282;2022-10-31T13:27:29;20.40;99.90
27667;DHT22;15074;50.940;5.282;2022-10-31T13:30:38;20.40;99.90
27667;DHT22;15074;50.940;5.282;2022-10-31T13:32:59;20.80;99.90
27667;DHT22;15074;50.940;5.282;2022-10-31T13:36:00;20.90;99.90
27667;DHT22;15074;50.940;5.282;2022-10-31T13:44:02;20.00;99.90
27667;DHT22;15074;50.940;5.282;2022-10-31T13:48:58;19.50;99.90
27667;DHT22;15074;50.940;5.282;2022-10-31T13:51:29;19.70;99.90
27667;DHT22;15074;50.940;5.282;2022-10-31T13:56:34;19.80;99.90
27667;DHT22;15074;50.940;5.282;2022-10-31T13:59:11;19.80;99.90
27667;DHT22;15074;50.940;5.282;2022-10-31T14:01:55;20.00;99.90
27667;DHT22;15074;50.940;5.282;2022-10-31T14:04:26;20.20;99.90
27667;DHT22;15074;50.940;5.282;2022-10-31T14:07:05;20.20;99.90
27667;DHT22;15074;50.940;5.282;2022-10-31T14:12:40;20.30;99.90
27667;DHT22;15074;50.940;5.282;2022-10-31T14:15:25;20.30;99.90
27667;DHT22;15074;50.940;5.282;2022-10-31T14:20:45;20.10;99.90
27667;DHT22;15074;50.940;5.282;2022-10-31T14:28:44;19.90;99.90
27667;DHT22;15074;50.940;5.282;2022-10-31T14:33:51;20.30;99.90
27667;DHT22;15074;50.940;5.282;2022-10-31T14:36:25;20.30;99.90
27667;DHT22;15074;50.940;5.282;2022-10-31T14:39:01;20.30;99.90
27667;DHT22;15074;50.940;5.282;2022-10-31T14:44:19;20.10;99.90
27667;DHT22;15074;50.940;5.282;2022-10-31T14:51:54;19.70;99.90
27667;DHT22;15074;50.940;5.282;2022-10-31T14:54:41;19.70;99.90
27667;DHT22;15074;50.940;5.282;2022-10-31T15:00:12;19.50;99.90
27667;DHT22;15074;50.940;5.282;2022-10-31T15:03:03;19.50;99.90
27667;DHT22;15074;50.940;5.282;2022-10-31T15:05:32;19.30;99.90
27667;DHT22;15074;50.940;5.282;2022-10-31T15:08:00;19.20;99.90
27667;DHT22;15074;50.940;5.282;2022-10-31T15:10:31;19.10;99.90
27667;DHT22;15074;50.940;5.282;2022-10-31T15:13:09;19.00;99.90
27667;DHT22;15074;50.940;5.282;2022-10-31T15:15:36;18.90;99.90
27667;DHT22;15074;50.940;5.282;2022-10-31T15:18:04;18.90;99.90
27667;DHT22;15074;50.940;5.282;2022-10-31T15:20:37;18.70;99.90
27667;DHT22;15074;50.940;5.282;2022-10-31T15:23:11;18.70;99.90
27667;DHT22;15074;50.940;5.282;2022-10-31T15:25:39;18.70;99.90
27667;DHT22;15074;50.940;5.282;2022-10-31T15:28:14;18.60;99.90
27667;DHT22;15074;50.940;5.282;2022-10-31T15:30:50;18.60;99.90
27667;DHT22;15074;50.940;5.282;2022-10-31T15:33:29;18.60;99.90
27667;DHT22;15074;50.940;5.282;2022-10-31T15:36:01;18.60;99.90
27667;DHT22;15074;50.940;5.282;2022-10-31T15:38:28;18.60;99.90
27667;DHT22;15074;50.940;5.282;2022-10-31T15:41:03;18.60;99.90
27667;DHT22;15074;50.940;5.282;2022-10-31T15:43:35;18.60;99.90
27667;DHT22;15074;50.940;5.282;2022-10-31T15:46:03;18.50;99.90
27667;DHT22;15074;50.940;5.282;2022-10-31T15:48:29;18.50;99.90
27667;DHT22;15074;50.940;5.282;2022-10-31T15:51:01;18.40;99.90
27667;DHT22;15074;50.940;5.282;2022-10-31T15:56:02;18.40;99.90
27667;DHT22;15074;50.940;5.282;2022-10-31T15:58:43;18.30;99.90
27667;DHT22;15074;50.940;5.282;2022-10-31T16:01:21;18.30;99.90
27667;DHT22;15074;50.940;5.282;2022-10-31T16:04:19;18.30;99.90
27667;DHT22;15074;50.940;5.282;2022-10-31T16:07:17;18.20;99.90
27667;DHT22;15074;50.940;5.282;2022-10-31T16:09:57;18.20;99.90
27667;DHT22;15074;50.940;5.282;2022-10-31T16:12:31;18.10;99.90
27667;DHT22;15074;50.940;5.282;2022-10-31T16:14:58;18.10;99.90
27667;DHT22;15074;50.940;5.282;2022-10-31T16:17:26;18.00;99.90
27667;DHT22;15074;50.940;5.282;2022-10-31T16:20:04;17.90;99.90
27667;DHT22;15074;50.940;5.282;2022-10-31T16:22:37;17.90;99.90
27667;DHT22;15074;50.940;5.282;2022-10-31T16:28:04;17.80;99.90
27667;DHT22;15074;50.940;5.282;2022-10-31T16:30:36;17.80;99.90
27667;DHT22;15074;50.940;5.282;2022-10-31T16:33:33;17.80;99.90
27667;DHT22;15074;50.940;5.282;2022-10-31T16:38:46;17.70;99.90
27667;DHT22;15074;50.940;5.282;2022-10-31T16:41:12;17.70;99.90
27667;DHT22;15074;50.940;5.282;2022-10-31T16:43:39;17.70;99.90
27667;DHT22;15074;50.940;5.282;2022-10-31T16:46:05;17.70;99.90
27667;DHT22;15074;50.940;5.282;2022-10-31T16:48:31;17.70;99.90
27667;DHT22;15074;50.940;5.282;2022-10-31T16:50:56;17.60;99.90
27667;DHT22;15074;50.940;5.282;2022-10-31T16:53:22;17.60;99.90
27667;DHT22;15074;50.940;5.282;2022-10-31T16:55:57;17.60;99.90
27667;DHT22;15074;50.940;5.282;2022-10-31T16:58:27;17.50;99.90
27667;DHT22;15074;50.940;5.282;2022-10-31T17:00:55;17.60;99.90
27667;DHT22;15074;50.940;5.282;2022-10-31T17:03:21;17.60;99.90
27667;DHT22;15074;50.940;5.282;2022-10-31T17:05:47;17.50;99.90
27667;DHT22;15074;50.940;5.282;2022-10-31T17:08:13;17.50;99.90
27667;DHT22;15074;50.940;5.282;2022-10-31T17:10:39;17.50;99.90
27667;DHT22;15074;50.940;5.282;2022-10-31T17:13:09;17.50;99.90
27667;DHT22;15074;50.940;5.282;2022-10-31T17:15:41;17.50;99.90
27667;DHT22;15074;50.940;5.282;2022-10-31T17:18:14;17.40;99.90
27667;DHT22;15074;50.940;5.282;2022-10-31T17:20:40;17.40;99.90
27667;DHT22;15074;50.940;5.282;2022-10-31T17:23:08;17.40;99.90
27667;DHT22;15074;50.940;5.282;2022-10-31T17:25:33;17.30;99.90
27667;DHT22;15074;50.940;5.282;2022-10-31T17:28:00;17.30;99.90
27667;DHT22;15074;50.940;5.282;2022-10-31T17:30:26;17.20;99.90
27667;DHT22;15074;50.940;5.282;2022-10-31T17:32:52;17.10;99.90
27667;DHT22;15074;50.940;5.282;2022-10-31T17:35:20;17.10;99.90
27667;DHT22;15074;50.940;5.282;2022-10-31T17:37:47;17.00;99.90
27667;DHT22;15074;50.940;5.282;2022-10-31T17:40:17;17.00;99.90
27667;DHT22;15074;50.940;5.282;2022-10-31T17:42:51;16.90;99.90
27667;DHT22;15074;50.940;5.282;2022-10-31T17:45:17;16.90;99.90
27667;DHT22;15074;50.940;5.282;2022-10-31T17:47:46;16.80;99.90
27667;DHT22;15074;50.940;5.282;2022-10-31T17:50:12;16.70;99.90
27667;DHT22;15074;50.940;5.282;2022-10-31T17:52:38;16.60;99.90
27667;DHT22;15074;50.940;5.282;2022-10-31T17:55:04;16.60;99.90
27667;DHT22;15074;50.940;5.282;2022-10-31T17:57:33;16.60;99.90